Terminal Aerodrome Forecast
Issued by NWS Charleston, WV

Current Version | Previous Version | Graphics & Text | Print | Product List | Glossary On
Versions: 1 2 3 4 5 6 7 8 9 10 11 12 13 14 15 16 17 18 19 20 21 22 23 24 25 26 27 28 29
000
FTUS41 KRLX 202200 AAB
TAFEKN
TAF AMD
KEKN 202212Z 2022/2118 19004KT P6SM BKN040 BKN050 OVC060
      TEMPO 2022/2024 3SM -TSRA BKN030CB
     FM210000 VRB03KT P6SM BKN050
     FM210500 VRB03KT 2SM BR BKN050
     FM210700 00000KT 1/4SM FG OVC001
     FM211300 00000KT 2SM BR BKN001
     FM211330 22004KT P6SM BKN035=

USA.gov is the U.S. government's official web portal to all federal, state and local government web resources and services.